sensor_id;sensor_type;location;lat;lon;timestamp;pressure;altitude;pressure_sealevel;temperature;humidity
50710;BME280;37033;49.994;21.992;2022-08-05T00:01:00;99426.59;;;16.27;69.34
50710;BME280;37033;49.994;21.992;2022-08-05T00:03:52;99430.33;;;16.22;69.39
50710;BME280;37033;49.994;21.992;2022-08-05T00:06:42;99428.52;;;16.18;69.66
50710;BME280;37033;49.994;21.992;2022-08-05T00:09:33;99435.55;;;16.16;69.84
50710;BME280;37033;49.994;21.992;2022-08-05T00:12:24;99425.69;;;16.11;69.76
50710;BME280;37033;49.994;21.992;2022-08-05T00:15:14;99423.23;;;16.07;69.98
50710;BME280;37033;49.994;21.992;2022-08-05T00:18:05;99423.51;;;16.03;70.11
50710;BME280;37033;49.994;21.992;2022-08-05T00:20:55;99424.67;;;16.01;70.14
50710;BME280;37033;49.994;21.992;2022-08-05T00:23:47;99423.03;;;15.97;70.29
50710;BME280;37033;49.994;21.992;2022-08-05T00:26:37;99422.80;;;15.93;70.49
50710;BME280;37033;49.994;21.992;2022-08-05T00:29:28;99421.11;;;15.90;70.61
50710;BME280;37033;49.994;21.992;2022-08-05T00:32:18;99425.57;;;15.85;70.64
50710;BME280;37033;49.994;21.992;2022-08-05T00:35:10;99427.05;;;15.80;70.78
50710;BME280;37033;49.994;21.992;2022-08-05T00:38:00;99425.13;;;15.78;70.92
50710;BME280;37033;49.994;21.992;2022-08-05T00:40:52;99419.58;;;15.75;71.14
50710;BME280;37033;49.994;21.992;2022-08-05T00:43:42;99422.14;;;15.71;71.13
50710;BME280;37033;49.994;21.992;2022-08-05T00:46:34;99424.34;;;15.67;71.29
50710;BME280;37033;49.994;21.992;2022-08-05T00:49:25;99422.36;;;15.63;71.31
50710;BME280;37033;49.994;21.992;2022-08-05T00:52:15;99420.33;;;15.59;71.38
50710;BME280;37033;49.994;21.992;2022-08-05T00:55:07;99417.37;;;15.55;71.48
50710;BME280;37033;49.994;21.992;2022-08-05T00:57:57;99419.23;;;15.51;71.70
50710;BME280;37033;49.994;21.992;2022-08-05T01:00:47;99418.73;;;15.48;71.67
50710;BME280;37033;49.994;21.992;2022-08-05T01:03:38;99414.95;;;15.45;71.76
50710;BME280;37033;49.994;21.992;2022-08-05T01:06:28;99411.77;;;15.42;71.73
50710;BME280;37033;49.994;21.992;2022-08-05T01:09:18;99409.26;;;15.38;71.87
50710;BME280;37033;49.994;21.992;2022-08-05T01:12:13;99409.73;;;15.37;72.02
50710;BME280;37033;49.994;21.992;2022-08-05T01:15:03;99407.83;;;15.33;72.00
50710;BME280;37033;49.994;21.992;2022-08-05T01:17:59;99406.34;;;15.28;71.79
50710;BME280;37033;49.994;21.992;2022-08-05T01:20:52;99403.09;;;15.24;71.88
50710;BME280;37033;49.994;21.992;2022-08-05T01:24:00;99395.04;;;15.20;71.97
50710;BME280;37033;49.994;21.992;2022-08-05T01:27:02;99393.56;;;15.16;72.22
50710;BME280;37033;49.994;21.992;2022-08-05T01:29:59;99392.29;;;15.11;72.26
50710;BME280;37033;49.994;21.992;2022-08-05T01:32:52;99394.09;;;15.07;72.44
50710;BME280;37033;49.994;21.992;2022-08-05T01:35:44;99391.06;;;15.04;72.45
50710;BME280;37033;49.994;21.992;2022-08-05T01:38:36;99391.50;;;15.01;72.65
50710;BME280;37033;49.994;21.992;2022-08-05T01:41:31;99389.41;;;14.99;72.61
50710;BME280;37033;49.994;21.992;2022-08-05T01:44:24;99389.69;;;14.96;72.70
50710;BME280;37033;49.994;21.992;2022-08-05T01:47:16;99389.90;;;14.93;72.79
50710;BME280;37033;49.994;21.992;2022-08-05T01:50:11;99390.28;;;14.92;72.94
50710;BME280;37033;49.994;21.992;2022-08-05T01:53:08;99389.66;;;14.89;73.01
50710;BME280;37033;49.994;21.992;2022-08-05T01:56:01;99388.95;;;14.85;72.98
50710;BME280;37033;49.994;21.992;2022-08-05T01:58:53;99389.60;;;14.82;73.06
50710;BME280;37033;49.994;21.992;2022-08-05T02:01:47;99388.66;;;14.78;73.11
50710;BME280;37033;49.994;21.992;2022-08-05T02:04:41;99389.20;;;14.75;73.23
50710;BME280;37033;49.994;21.992;2022-08-05T02:07:32;99382.08;;;14.72;73.29
50710;BME280;37033;49.994;21.992;2022-08-05T02:10:24;99382.17;;;14.70;73.44
50710;BME280;37033;49.994;21.992;2022-08-05T02:13:18;99381.07;;;14.68;73.56
50710;BME280;37033;49.994;21.992;2022-08-05T02:16:13;99380.68;;;14.65;73.72
50710;BME280;37033;49.994;21.992;2022-08-05T02:19:12;99377.44;;;14.60;73.46
50710;BME280;37033;49.994;21.992;2022-08-05T02:22:14;99378.46;;;14.57;73.55
50710;BME280;37033;49.994;21.992;2022-08-05T02:25:07;99375.58;;;14.53;73.61
50710;BME280;37033;49.994;21.992;2022-08-05T02:28:00;99373.65;;;14.51;73.79
50710;BME280;37033;49.994;21.992;2022-08-05T02:30:55;99372.88;;;14.50;73.88
50710;BME280;37033;49.994;21.992;2022-08-05T02:33:49;99369.48;;;14.47;73.95
50710;BME280;37033;49.994;21.992;2022-08-05T02:36:42;99368.42;;;14.44;73.93
50710;BME280;37033;49.994;21.992;2022-08-05T02:39:36;99363.11;;;14.41;74.02
50710;BME280;37033;49.994;21.992;2022-08-05T02:42:28;99362.45;;;14.39;74.11
50710;BME280;37033;49.994;21.992;2022-08-05T02:45:19;99361.56;;;14.36;74.24
50710;BME280;37033;49.994;21.992;2022-08-05T02:48:10;99359.85;;;14.34;74.31
50710;BME280;37033;49.994;21.992;2022-08-05T02:51:03;99361.59;;;14.31;74.38
50710;BME280;37033;49.994;21.992;2022-08-05T02:53:54;99358.95;;;14.27;74.48
50710;BME280;37033;49.994;21.992;2022-08-05T02:56:46;99355.82;;;14.23;74.49
50710;BME280;37033;49.994;21.992;2022-08-05T02:59:37;99354.21;;;14.20;74.48
50710;BME280;37033;49.994;21.992;2022-08-05T03:02:33;99356.06;;;14.18;74.68
50710;BME280;37033;49.994;21.992;2022-08-05T03:05:25;99359.34;;;14.17;74.69
50710;BME280;37033;49.994;21.992;2022-08-05T03:08:17;99359.05;;;14.14;74.74
50710;BME280;37033;49.994;21.992;2022-08-05T03:11:19;99356.41;;;14.13;74.81
50710;BME280;37033;49.994;21.992;2022-08-05T03:14:11;99349.52;;;14.10;74.85
50710;BME280;37033;49.994;21.992;2022-08-05T03:17:01;99350.11;;;14.09;74.91
50710;BME280;37033;49.994;21.992;2022-08-05T03:19:52;99348.24;;;14.07;75.03
50710;BME280;37033;49.994;21.992;2022-08-05T03:22:42;99348.39;;;14.05;75.08
50710;BME280;37033;49.994;21.992;2022-08-05T03:25:33;99344.94;;;14.03;75.01
50710;BME280;37033;49.994;21.992;2022-08-05T03:28:24;99345.09;;;13.99;75.39
50710;BME280;37033;49.994;21.992;2022-08-05T03:31:15;99346.06;;;13.96;75.59
50710;BME280;37033;49.994;21.992;2022-08-05T03:34:06;99346.16;;;13.96;75.79
50710;BME280;37033;49.994;21.992;2022-08-05T03:36:56;99345.69;;;13.96;75.92
50710;BME280;37033;49.994;21.992;2022-08-05T03:40:00;99345.14;;;13.98;75.91
50710;BME280;37033;49.994;21.992;2022-08-05T03:42:51;99340.48;;;13.98;75.96
50710;BME280;37033;49.994;21.992;2022-08-05T03:45:41;99341.27;;;14.00;76.18
50710;BME280;37033;49.994;21.992;2022-08-05T03:48:32;99340.02;;;14.02;76.29
50710;BME280;37033;49.994;21.992;2022-08-05T03:51:29;99337.08;;;14.03;76.63
50710;BME280;37033;49.994;21.992;2022-08-05T03:54:29;99341.99;;;14.03;76.61
50710;BME280;37033;49.994;21.992;2022-08-05T03:57:23;99340.73;;;14.04;76.82
50710;BME280;37033;49.994;21.992;2022-08-05T04:00:17;99333.75;;;14.07;77.00
50710;BME280;37033;49.994;21.992;2022-08-05T04:03:10;99331.91;;;14.11;77.13
50710;BME280;37033;49.994;21.992;2022-08-05T04:06:01;99332.05;;;14.15;77.21
50710;BME280;37033;49.994;21.992;2022-08-05T04:08:52;99334.77;;;14.22;77.32
50710;BME280;37033;49.994;21.992;2022-08-05T04:11:43;99333.86;;;14.29;77.47
50710;BME280;37033;49.994;21.992;2022-08-05T04:14:36;99332.19;;;14.37;77.78
50710;BME280;37033;49.994;21.992;2022-08-05T04:17:27;99331.57;;;14.46;77.88
50710;BME280;37033;49.994;21.992;2022-08-05T04:20:22;99330.90;;;14.55;77.90
50710;BME280;37033;49.994;21.992;2022-08-05T04:23:12;99330.77;;;14.65;77.96
50710;BME280;37033;49.994;21.992;2022-08-05T04:26:03;99327.03;;;14.76;77.99
50710;BME280;37033;49.994;21.992;2022-08-05T04:28:54;99335.26;;;14.87;78.18
50710;BME280;37033;49.994;21.992;2022-08-05T04:31:44;99336.66;;;15.02;78.42
50710;BME280;37033;49.994;21.992;2022-08-05T04:34:35;99330.32;;;15.17;78.20
50710;BME280;37033;49.994;21.992;2022-08-05T04:37:25;99333.11;;;15.33;78.14
50710;BME280;37033;49.994;21.992;2022-08-05T04:40:15;99336.23;;;15.49;78.16
50710;BME280;37033;49.994;21.992;2022-08-05T04:43:06;99332.74;;;15.66;78.10
50710;BME280;37033;49.994;21.992;2022-08-05T04:45:56;99330.83;;;15.85;78.20
50710;BME280;37033;49.994;21.992;2022-08-05T04:48:46;99329.79;;;16.06;78.31
50710;BME280;37033;49.994;21.992;2022-08-05T04:51:37;99327.52;;;16.24;77.91
50710;BME280;37033;49.994;21.992;2022-08-05T04:54:27;99327.23;;;16.41;77.77
50710;BME280;37033;49.994;21.992;2022-08-05T04:57:18;99323.77;;;16.63;77.91
50710;BME280;37033;49.994;21.992;2022-08-05T05:00:11;99322.36;;;16.83;77.68
50710;BME280;37033;49.994;21.992;2022-08-05T05:03:02;99321.71;;;17.07;77.71
50710;BME280;37033;49.994;21.992;2022-08-05T05:05:52;99313.74;;;17.29;77.53
50710;BME280;37033;49.994;21.992;2022-08-05T05:08:42;99315.72;;;17.53;77.61
50710;BME280;37033;49.994;21.992;2022-08-05T05:11:32;99317.43;;;17.75;77.38
50710;BME280;37033;49.994;21.992;2022-08-05T05:14:22;99317.23;;;17.96;77.05
50710;BME280;37033;49.994;21.992;2022-08-05T05:17:13;99319.25;;;18.13;76.67
50710;BME280;37033;49.994;21.992;2022-08-05T05:20:04;99320.02;;;18.27;76.29
50710;BME280;37033;49.994;21.992;2022-08-05T05:22:54;99323.51;;;18.42;76.15
50710;BME280;37033;49.994;21.992;2022-08-05T05:25:45;99322.62;;;18.59;75.89
50710;BME280;37033;49.994;21.992;2022-08-05T05:28:35;99319.29;;;18.73;75.39
50710;BME280;37033;49.994;21.992;2022-08-05T05:31:25;99320.20;;;18.88;74.81
50710;BME280;37033;49.994;21.992;2022-08-05T05:34:16;99323.23;;;19.02;74.63
50710;BME280;37033;49.994;21.992;2022-08-05T05:37:06;99323.42;;;19.18;74.38
50710;BME280;37033;49.994;21.992;2022-08-05T05:39:57;99324.58;;;19.35;74.06
50710;BME280;37033;49.994;21.992;2022-08-05T05:42:48;99322.48;;;19.49;73.53
50710;BME280;37033;49.994;21.992;2022-08-05T05:45:39;99323.60;;;19.66;73.57
50710;BME280;37033;49.994;21.992;2022-08-05T05:48:30;99321.57;;;19.86;73.41
50710;BME280;37033;49.994;21.992;2022-08-05T05:51:21;99318.52;;;20.06;73.07
50710;BME280;37033;49.994;21.992;2022-08-05T05:54:12;99319.02;;;20.20;72.39
50710;BME280;37033;49.994;21.992;2022-08-05T05:57:02;99312.83;;;20.37;72.14
50710;BME280;37033;49.994;21.992;2022-08-05T05:59:52;99313.70;;;20.52;71.72
50710;BME280;37033;49.994;21.992;2022-08-05T06:02:43;99314.61;;;20.71;71.53
50710;BME280;37033;49.994;21.992;2022-08-05T06:05:35;99313.90;;;20.87;71.37
50710;BME280;37033;49.994;21.992;2022-08-05T06:08:26;99310.65;;;21.06;70.78
50710;BME280;37033;49.994;21.992;2022-08-05T06:11:17;99308.95;;;21.23;70.64
50710;BME280;37033;49.994;21.992;2022-08-05T06:14:07;99308.38;;;21.39;70.25
50710;BME280;37033;49.994;21.992;2022-08-05T06:16:58;99309.20;;;21.58;70.01
50710;BME280;37033;49.994;21.992;2022-08-05T06:19:49;99303.63;;;21.79;69.90
50710;BME280;37033;49.994;21.992;2022-08-05T06:22:40;99306.16;;;22.01;69.68
50710;BME280;37033;49.994;21.992;2022-08-05T06:25:30;99304.67;;;22.21;68.95
50710;BME280;37033;49.994;21.992;2022-08-05T06:28:20;99305.41;;;22.41;68.78
50710;BME280;37033;49.994;21.992;2022-08-05T06:31:11;99302.45;;;22.58;68.16
50710;BME280;37033;49.994;21.992;2022-08-05T06:34:03;99311.59;;;22.78;68.02
50710;BME280;37033;49.994;21.992;2022-08-05T06:36:53;99313.05;;;23.01;68.07
50710;BME280;37033;49.994;21.992;2022-08-05T06:39:43;99303.75;;;23.21;67.00
50710;BME280;37033;49.994;21.992;2022-08-05T06:42:35;99305.47;;;23.38;66.54
50710;BME280;37033;49.994;21.992;2022-08-05T06:45:25;99303.59;;;23.56;65.94
50710;BME280;37033;49.994;21.992;2022-08-05T06:48:15;99302.32;;;23.70;65.14
50710;BME280;37033;49.994;21.992;2022-08-05T06:51:07;99293.48;;;23.87;65.24
50710;BME280;37033;49.994;21.992;2022-08-05T06:53:58;99293.54;;;24.07;65.08
50710;BME280;37033;49.994;21.992;2022-08-05T06:56:48;99294.30;;;24.27;64.87
50710;BME280;37033;49.994;21.992;2022-08-05T06:59:38;99291.63;;;24.48;64.40
50710;BME280;37033;49.994;21.992;2022-08-05T07:02:29;99292.27;;;24.72;64.18
50710;BME280;37033;49.994;21.992;2022-08-05T07:05:19;99288.65;;;24.94;63.59
50710;BME280;37033;49.994;21.992;2022-08-05T07:08:10;99286.05;;;25.15;62.63
50710;BME280;37033;49.994;21.992;2022-08-05T07:11:00;99282.96;;;25.31;62.30
50710;BME280;37033;49.994;21.992;2022-08-05T07:13:52;99280.98;;;25.47;61.84
50710;BME280;37033;49.994;21.992;2022-08-05T07:17:01;99286.25;;;25.66;60.90
50710;BME280;37033;49.994;21.992;2022-08-05T07:19:52;99282.20;;;25.81;59.59
50710;BME280;37033;49.994;21.992;2022-08-05T07:22:44;99278.98;;;25.93;59.39
50710;BME280;37033;49.994;21.992;2022-08-05T07:25:34;99278.57;;;26.07;58.89
50710;BME280;37033;49.994;21.992;2022-08-05T07:28:25;99283.36;;;26.17;58.01
50710;BME280;37033;49.994;21.992;2022-08-05T07:31:15;99278.95;;;26.29;56.90
50710;BME280;37033;49.994;21.992;2022-08-05T07:34:06;99272.81;;;26.36;56.74
50710;BME280;37033;49.994;21.992;2022-08-05T07:36:56;99274.36;;;26.51;56.63
50710;BME280;37033;49.994;21.992;2022-08-05T07:39:47;99273.61;;;26.62;56.43
50710;BME280;37033;49.994;21.992;2022-08-05T07:42:37;99272.14;;;26.74;56.51
50710;BME280;37033;49.994;21.992;2022-08-05T07:45:28;99279.80;;;26.87;55.95
50710;BME280;37033;49.994;21.992;2022-08-05T07:48:18;99279.34;;;26.99;55.20
50710;BME280;37033;49.994;21.992;2022-08-05T07:51:09;99278.47;;;27.08;53.89
50710;BME280;37033;49.994;21.992;2022-08-05T07:53:59;99281.48;;;27.15;52.58
50710;BME280;37033;49.994;21.992;2022-08-05T07:56:49;99281.73;;;27.24;52.17
50710;BME280;37033;49.994;21.992;2022-08-05T07:59:39;99280.23;;;27.30;51.52
50710;BME280;37033;49.994;21.992;2022-08-05T08:02:30;99278.63;;;27.35;50.91
50710;BME280;37033;49.994;21.992;2022-08-05T08:05:22;99276.92;;;27.44;51.30
50710;BME280;37033;49.994;21.992;2022-08-05T08:08:14;99270.13;;;27.57;51.20
50710;BME280;37033;49.994;21.992;2022-08-05T08:11:05;99270.20;;;27.69;49.57
50710;BME280;37033;49.994;21.992;2022-08-05T08:13:55;99273.48;;;27.73;48.19
50710;BME280;37033;49.994;21.992;2022-08-05T08:16:45;99272.48;;;27.77;47.57
50710;BME280;37033;49.994;21.992;2022-08-05T08:19:36;99270.05;;;27.83;46.85
50710;BME280;37033;49.994;21.992;2022-08-05T08:22:27;99271.96;;;27.88;46.78
50710;BME280;37033;49.994;21.992;2022-08-05T08:25:18;99279.27;;;27.96;46.62
50710;BME280;37033;49.994;21.992;2022-08-05T08:28:08;99273.31;;;28.07;47.11
50710;BME280;37033;49.994;21.992;2022-08-05T08:30:58;99270.65;;;28.15;45.82
50710;BME280;37033;49.994;21.992;2022-08-05T08:33:49;99272.05;;;28.24;45.96
50710;BME280;37033;49.994;21.992;2022-08-05T08:36:39;99265.40;;;28.37;45.40
50710;BME280;37033;49.994;21.992;2022-08-05T08:39:29;99268.14;;;28.45;45.19
50710;BME280;37033;49.994;21.992;2022-08-05T08:42:20;99270.02;;;28.53;46.08
50710;BME280;37033;49.994;21.992;2022-08-05T08:45:13;99263.90;;;28.65;45.27
50710;BME280;37033;49.994;21.992;2022-08-05T08:48:06;99260.84;;;28.74;44.11
50710;BME280;37033;49.994;21.992;2022-08-05T08:50:57;99261.81;;;28.87;44.22
50710;BME280;37033;49.994;21.992;2022-08-05T08:53:49;99259.67;;;28.96;42.95
50710;BME280;37033;49.994;21.992;2022-08-05T08:56:40;99257.55;;;28.94;43.27
50710;BME280;37033;49.994;21.992;2022-08-05T08:59:31;99251.05;;;29.05;44.04
50710;BME280;37033;49.994;21.992;2022-08-05T09:02:21;99250.16;;;29.19;43.33
50710;BME280;37033;49.994;21.992;2022-08-05T09:05:13;99251.73;;;29.29;43.39
50710;BME280;37033;49.994;21.992;2022-08-05T09:08:04;99247.66;;;29.44;43.44
50710;BME280;37033;49.994;21.992;2022-08-05T09:10:54;99243.23;;;29.59;42.87
50710;BME280;37033;49.994;21.992;2022-08-05T09:13:45;99243.03;;;29.66;42.96
50710;BME280;37033;49.994;21.992;2022-08-05T09:16:36;99245.02;;;29.78;41.76
50710;BME280;37033;49.994;21.992;2022-08-05T09:19:27;99243.92;;;29.84;41.84
50710;BME280;37033;49.994;21.992;2022-08-05T09:22:17;99239.77;;;29.90;41.96
50710;BME280;37033;49.994;21.992;2022-08-05T09:25:08;99236.92;;;30.02;42.16
50710;BME280;37033;49.994;21.992;2022-08-05T09:28:09;99233.09;;;30.18;41.90
50710;BME280;37033;49.994;21.992;2022-08-05T09:31:02;99229.75;;;30.40;42.55
50710;BME280;37033;49.994;21.992;2022-08-05T09:33:54;99228.05;;;30.57;41.78
50710;BME280;37033;49.994;21.992;2022-08-05T09:36:47;99226.19;;;30.67;41.49
50710;BME280;37033;49.994;21.992;2022-08-05T09:39:40;99227.98;;;30.71;41.19
50710;BME280;37033;49.994;21.992;2022-08-05T09:42:41;99226.39;;;30.83;41.15
50710;BME280;37033;49.994;21.992;2022-08-05T09:45:41;99222.86;;;30.95;40.32
50710;BME280;37033;49.994;21.992;2022-08-05T09:48:33;99221.77;;;31.04;40.84
50710;BME280;37033;49.994;21.992;2022-08-05T09:51:33;99223.79;;;31.27;40.64
50710;BME280;37033;49.994;21.992;2022-08-05T09:54:31;99225.94;;;31.47;39.54
50710;BME280;37033;49.994;21.992;2022-08-05T09:57:34;99227.50;;;31.53;39.14
50710;BME280;37033;49.994;21.992;2022-08-05T10:00:25;99222.98;;;31.75;38.99
50710;BME280;37033;49.994;21.992;2022-08-05T10:03:15;99219.02;;;31.93;38.98
50710;BME280;37033;49.994;21.992;2022-08-05T10:06:09;99217.84;;;32.26;38.83
50710;BME280;37033;49.994;21.992;2022-08-05T10:09:08;99217.71;;;32.46;36.54
50710;BME280;37033;49.994;21.992;2022-08-05T10:12:10;99215.77;;;32.44;36.97
50710;BME280;37033;49.994;21.992;2022-08-05T10:15:19;99216.48;;;32.45;35.61
50710;BME280;37033;49.994;21.992;2022-08-05T10:18:12;99214.73;;;32.47;36.03
50710;BME280;37033;49.994;21.992;2022-08-05T10:21:05;99210.08;;;32.58;35.89
50710;BME280;37033;49.994;21.992;2022-08-05T10:23:56;99208.52;;;32.67;36.59
50710;BME280;37033;49.994;21.992;2022-08-05T10:26:48;99209.39;;;32.88;36.42
50710;BME280;37033;49.994;21.992;2022-08-05T10:29:39;99203.77;;;33.10;35.99
50710;BME280;37033;49.994;21.992;2022-08-05T10:32:30;99201.73;;;33.29;34.95
50710;BME280;37033;49.994;21.992;2022-08-05T10:35:21;99199.40;;;33.33;35.00
50710;BME280;37033;49.994;21.992;2022-08-05T10:38:13;99197.14;;;33.30;34.77
50710;BME280;37033;49.994;21.992;2022-08-05T10:41:10;99195.86;;;33.37;35.45
50710;BME280;37033;49.994;21.992;2022-08-05T10:44:07;99190.89;;;33.53;34.82
50710;BME280;37033;49.994;21.992;2022-08-05T10:47:03;99187.17;;;33.57;33.69
50710;BME280;37033;49.994;21.992;2022-08-05T10:50:04;99186.86;;;33.48;33.99
50710;BME280;37033;49.994;21.992;2022-08-05T10:53:00;99178.89;;;33.55;34.23
50710;BME280;37033;49.994;21.992;2022-08-05T10:56:05;99181.30;;;33.57;34.26
50710;BME280;37033;49.994;21.992;2022-08-05T10:59:06;99172.39;;;33.63;34.32
50710;BME280;37033;49.994;21.992;2022-08-05T11:02:10;99169.80;;;33.82;34.16
50710;BME280;37033;49.994;21.992;2022-08-05T11:05:04;99171.31;;;33.95;34.34
50710;BME280;37033;49.994;21.992;2022-08-05T11:07:58;99173.73;;;34.07;34.81
50710;BME280;37033;49.994;21.992;2022-08-05T11:10:50;99166.48;;;34.38;33.87
50710;BME280;37033;49.994;21.992;2022-08-05T11:13:42;99160.36;;;34.56;33.14
50710;BME280;37033;49.994;21.992;2022-08-05T11:16:33;99168.65;;;34.68;32.87
50710;BME280;37033;49.994;21.992;2022-08-05T11:19:28;99167.38;;;34.59;32.04
50710;BME280;37033;49.994;21.992;2022-08-05T11:22:40;99170.56;;;34.50;32.50
50710;BME280;37033;49.994;21.992;2022-08-05T11:25:35;99168.02;;;34.57;32.83
50710;BME280;37033;49.994;21.992;2022-08-05T11:28:41;99163.59;;;34.80;33.02
50710;BME280;37033;49.994;21.992;2022-08-05T11:31:37;99158.86;;;35.18;33.14
50710;BME280;37033;49.994;21.992;2022-08-05T11:34:39;99153.88;;;35.49;32.49
50710;BME280;37033;49.994;21.992;2022-08-05T11:38:01;99154.11;;;35.41;32.13
50710;BME280;37033;49.994;21.992;2022-08-05T11:41:02;99152.86;;;35.54;32.25
50710;BME280;37033;49.994;21.992;2022-08-05T11:43:58;99150.73;;;35.87;32.26
50710;BME280;37033;49.994;21.992;2022-08-05T11:46:50;99150.11;;;36.01;31.09
50710;BME280;37033;49.994;21.992;2022-08-05T11:49:41;99143.42;;;36.23;31.51
50710;BME280;37033;49.994;21.992;2022-08-05T11:52:31;99143.25;;;36.77;32.17
50710;BME280;37033;49.994;21.992;2022-08-05T11:55:22;99143.75;;;36.99;30.84
50710;BME280;37033;49.994;21.992;2022-08-05T11:58:13;99148.02;;;37.06;31.13
50710;BME280;37033;49.994;21.992;2022-08-05T12:01:15;99149.42;;;37.06;30.28
50710;BME280;37033;49.994;21.992;2022-08-05T12:04:06;99149.98;;;37.05;30.26
50710;BME280;37033;49.994;21.992;2022-08-05T12:07:00;99150.09;;;36.92;29.75
50710;BME280;37033;49.994;21.992;2022-08-05T12:09:53;99151.01;;;36.73;29.33
50710;BME280;37033;49.994;21.992;2022-08-05T12:12:43;99148.98;;;36.59;28.67
50710;BME280;37033;49.994;21.992;2022-08-05T12:15:35;99149.77;;;36.54;29.20
50710;BME280;37033;49.994;21.992;2022-08-05T12:18:30;99143.95;;;36.66;30.34
50710;BME280;37033;49.994;21.992;2022-08-05T12:21:23;99140.94;;;37.17;28.33
50710;BME280;37033;49.994;21.992;2022-08-05T12:24:16;99143.16;;;37.12;28.24
50710;BME280;37033;49.994;21.992;2022-08-05T12:27:07;99143.35;;;37.23;28.58
50710;BME280;37033;49.994;21.992;2022-08-05T12:30:03;99139.48;;;37.46;28.64
50710;BME280;37033;49.994;21.992;2022-08-05T12:32:54;99136.67;;;37.61;27.54
50710;BME280;37033;49.994;21.992;2022-08-05T12:35:46;99140.59;;;37.69;26.83
50710;BME280;37033;49.994;21.992;2022-08-05T12:38:38;99134.70;;;37.63;27.26
50710;BME280;37033;49.994;21.992;2022-08-05T12:41:33;99138.98;;;37.78;26.96
50710;BME280;37033;49.994;21.992;2022-08-05T12:44:23;99134.16;;;37.79;26.93
50710;BME280;37033;49.994;21.992;2022-08-05T12:47:23;99131.84;;;37.87;26.67
50710;BME280;37033;49.994;21.992;2022-08-05T12:50:16;99134.45;;;37.67;25.92
50710;BME280;37033;49.994;21.992;2022-08-05T12:53:06;99129.81;;;37.82;26.62
50710;BME280;37033;49.994;21.992;2022-08-05T12:55:57;99124.89;;;37.99;26.86
50710;BME280;37033;49.994;21.992;2022-08-05T12:59:14;99124.21;;;38.37;26.31
50710;BME280;37033;49.994;21.992;2022-08-05T13:02:06;99112.92;;;38.73;26.63
50710;BME280;37033;49.994;21.992;2022-08-05T13:04:57;99110.79;;;39.24;27.02
50710;BME280;37033;49.994;21.992;2022-08-05T13:07:48;99109.40;;;39.60;25.41
50710;BME280;37033;49.994;21.992;2022-08-05T13:10:44;99110.14;;;39.43;24.63
50710;BME280;37033;49.994;21.992;2022-08-05T13:13:38;99107.75;;;39.15;24.85
50710;BME280;37033;49.994;21.992;2022-08-05T13:16:29;99107.02;;;38.89;24.93
50710;BME280;37033;49.994;21.992;2022-08-05T13:19:22;99101.65;;;38.69;25.44
50710;BME280;37033;49.994;21.992;2022-08-05T13:22:12;99099.17;;;38.75;24.76
50710;BME280;37033;49.994;21.992;2022-08-05T13:25:05;99097.53;;;38.56;24.76
50710;BME280;37033;49.994;21.992;2022-08-05T13:27:56;99098.55;;;38.43;25.18
50710;BME280;37033;49.994;21.992;2022-08-05T13:30:47;99094.38;;;38.86;26.00
50710;BME280;37033;49.994;21.992;2022-08-05T13:33:37;99094.04;;;39.08;24.15
50710;BME280;37033;49.994;21.992;2022-08-05T13:36:29;99088.13;;;39.04;25.17
50710;BME280;37033;49.994;21.992;2022-08-05T13:39:20;99088.55;;;39.33;25.32
50710;BME280;37033;49.994;21.992;2022-08-05T13:42:11;99091.56;;;39.46;24.43
50710;BME280;37033;49.994;21.992;2022-08-05T13:45:02;99090.71;;;39.24;24.41
50710;BME280;37033;49.994;21.992;2022-08-05T13:47:52;99088.45;;;39.24;24.88
50710;BME280;37033;49.994;21.992;2022-08-05T13:50:43;99090.08;;;39.33;25.03
50710;BME280;37033;49.994;21.992;2022-08-05T13:53:33;99087.62;;;39.44;24.20
50710;BME280;37033;49.994;21.992;2022-08-05T13:56:24;99087.40;;;39.43;24.18
50710;BME280;37033;49.994;21.992;2022-08-05T13:59:14;99082.21;;;39.77;25.45
50710;BME280;37033;49.994;21.992;2022-08-05T14:02:05;99077.86;;;40.11;23.25
50710;BME280;37033;49.994;21.992;2022-08-05T14:04:56;99079.52;;;39.96;23.93
50710;BME280;37033;49.994;21.992;2022-08-05T14:08:03;99081.69;;;40.11;24.14
50710;BME280;37033;49.994;21.992;2022-08-05T14:10:53;99080.38;;;40.45;24.82
50710;BME280;37033;49.994;21.992;2022-08-05T14:13:44;99076.91;;;40.82;23.92
50710;BME280;37033;49.994;21.992;2022-08-05T14:16:34;99070.57;;;40.76;22.78
50710;BME280;37033;49.994;21.992;2022-08-05T14:19:25;99072.75;;;40.48;23.33
50710;BME280;37033;49.994;21.992;2022-08-05T14:22:15;99067.02;;;40.72;23.81
50710;BME280;37033;49.994;21.992;2022-08-05T14:25:07;99068.94;;;40.84;22.40
50710;BME280;37033;49.994;21.992;2022-08-05T14:27:57;99066.10;;;40.82;23.12
50710;BME280;37033;49.994;21.992;2022-08-05T14:30:48;99065.73;;;41.20;22.91
50710;BME280;37033;49.994;21.992;2022-08-05T14:33:38;99064.88;;;41.09;21.53
50710;BME280;37033;49.994;21.992;2022-08-05T14:36:28;99058.37;;;40.71;22.01
50710;BME280;37033;49.994;21.992;2022-08-05T14:39:19;99062.05;;;40.72;22.25
50710;BME280;37033;49.994;21.992;2022-08-05T14:42:10;99059.77;;;40.57;22.11
50710;BME280;37033;49.994;21.992;2022-08-05T14:45:00;99061.40;;;40.49;21.97
50710;BME280;37033;49.994;21.992;2022-08-05T14:47:50;99057.91;;;40.31;21.14
50710;BME280;37033;49.994;21.992;2022-08-05T14:50:41;99057.67;;;40.04;21.91
50710;BME280;37033;49.994;21.992;2022-08-05T14:53:31;99052.52;;;39.86;21.73
50710;BME280;37033;49.994;21.992;2022-08-05T14:56:22;99051.42;;;39.64;22.38
50710;BME280;37033;49.994;21.992;2022-08-05T14:59:12;99047.02;;;39.56;22.25
50710;BME280;37033;49.994;21.992;2022-08-05T15:02:02;99039.48;;;39.70;22.49